sensor_id;sensor_type;location;lat;lon;timestamp;P1;durP1;ratioP1;P2;durP2;ratioP2
73760;SDS011;69240;43.530;-5.646;2023-04-25T04:58:46;7.28;;;4.00;;
73760;SDS011;69240;43.530;-5.646;2023-04-25T05:01:14;10.15;;;4.13;;
73760;SDS011;69240;43.530;-5.646;2023-04-25T05:03:41;9.50;;;3.95;;
73760;SDS011;69240;43.530;-5.646;2023-04-25T05:06:06;3.53;;;3.22;;
73760;SDS011;69240;43.530;-5.646;2023-04-25T05:08:33;6.00;;;3.70;;
73760;SDS011;69240;43.530;-5.646;2023-04-25T05:10:59;6.03;;;3.45;;
73760;SDS011;69240;43.530;-5.646;2023-04-25T05:13:24;10.25;;;4.10;;
73760;SDS011;69240;43.530;-5.646;2023-04-25T05:15:50;4.75;;;3.35;;
73760;SDS011;69240;43.530;-5.646;2023-04-25T05:18:15;8.48;;;4.07;;
73760;SDS011;69240;43.530;-5.646;2023-04-25T05:20:41;4.50;;;3.22;;
73760;SDS011;69240;43.530;-5.646;2023-04-25T05:23:07;6.10;;;3.40;;
73760;SDS011;69240;43.530;-5.646;2023-04-25T05:25:32;6.95;;;3.38;;
73760;SDS011;69240;43.530;-5.646;2023-04-25T05:27:58;4.13;;;3.33;;
73760;SDS011;69240;43.530;-5.646;2023-04-25T05:30:24;5.18;;;3.38;;
73760;SDS011;69240;43.530;-5.646;2023-04-25T05:32:49;5.60;;;3.45;;
73760;SDS011;69240;43.530;-5.646;2023-04-25T05:35:15;8.32;;;3.88;;
73760;SDS011;69240;43.530;-5.646;2023-04-25T05:37:41;4.72;;;3.63;;
73760;SDS011;69240;43.530;-5.646;2023-04-25T05:40:07;8.30;;;3.42;;
73760;SDS011;69240;43.530;-5.646;2023-04-25T05:42:33;9.55;;;4.15;;
73760;SDS011;69240;43.530;-5.646;2023-04-25T05:44:59;6.63;;;3.50;;
73760;SDS011;69240;43.530;-5.646;2023-04-25T05:47:25;7.07;;;3.55;;
73760;SDS011;69240;43.530;-5.646;2023-04-25T05:49:51;8.05;;;3.22;;
73760;SDS011;69240;43.530;-5.646;2023-04-25T05:52:17;6.18;;;3.38;;
73760;SDS011;69240;43.530;-5.646;2023-04-25T05:54:43;6.57;;;3.63;;
73760;SDS011;69240;43.530;-5.646;2023-04-25T05:57:17;6.95;;;3.53;;
73760;SDS011;69240;43.530;-5.646;2023-04-25T05:59:44;6.40;;;3.58;;
73760;SDS011;69240;43.530;-5.646;2023-04-25T06:02:10;12.50;;;3.65;;
73760;SDS011;69240;43.530;-5.646;2023-04-25T06:04:36;7.25;;;3.40;;
73760;SDS011;69240;43.530;-5.646;2023-04-25T06:07:01;6.50;;;3.53;;
73760;SDS011;69240;43.530;-5.646;2023-04-25T06:09:27;6.80;;;3.42;;
73760;SDS011;69240;43.530;-5.646;2023-04-25T06:11:52;7.70;;;3.40;;
73760;SDS011;69240;43.530;-5.646;2023-04-25T06:14:17;7.65;;;3.40;;
73760;SDS011;69240;43.530;-5.646;2023-04-25T06:16:43;5.60;;;3.63;;
73760;SDS011;69240;43.530;-5.646;2023-04-25T06:19:08;6.70;;;3.50;;
73760;SDS011;69240;43.530;-5.646;2023-04-25T06:21:34;8.45;;;3.53;;
73760;SDS011;69240;43.530;-5.646;2023-04-25T06:23:59;6.72;;;3.13;;
73760;SDS011;69240;43.530;-5.646;2023-04-25T06:26:25;9.85;;;3.70;;
73760;SDS011;69240;43.530;-5.646;2023-04-25T06:28:51;15.32;;;4.28;;
73760;SDS011;69240;43.530;-5.646;2023-04-25T06:31:19;5.95;;;3.90;;
73760;SDS011;69240;43.530;-5.646;2023-04-25T06:33:44;9.27;;;3.42;;
73760;SDS011;69240;43.530;-5.646;2023-04-25T06:36:10;7.00;;;3.42;;
73760;SDS011;69240;43.530;-5.646;2023-04-25T06:38:35;6.95;;;3.45;;
73760;SDS011;69240;43.530;-5.646;2023-04-25T06:41:01;5.07;;;3.22;;
73760;SDS011;69240;43.530;-5.646;2023-04-25T06:43:27;7.20;;;3.10;;
73760;SDS011;69240;43.530;-5.646;2023-04-25T06:55:52;6.78;;;3.40;;
73760;SDS011;69240;43.530;-5.646;2023-04-25T06:58:18;4.95;;;3.00;;
73760;SDS011;69240;43.530;-5.646;2023-04-25T07:00:43;6.03;;;3.08;;
73760;SDS011;69240;43.530;-5.646;2023-04-25T07:03:09;3.88;;;2.80;;
73760;SDS011;69240;43.530;-5.646;2023-04-25T07:05:35;7.22;;;3.15;;
73760;SDS011;69240;43.530;-5.646;2023-04-25T07:08:00;7.72;;;3.55;;
73760;SDS011;69240;43.530;-5.646;2023-04-25T07:10:26;7.65;;;4.18;;
73760;SDS011;69240;43.530;-5.646;2023-04-25T07:12:51;5.35;;;3.92;;
73760;SDS011;69240;43.530;-5.646;2023-04-25T07:15:17;7.28;;;4.40;;
73760;SDS011;69240;43.530;-5.646;2023-04-25T07:17:42;8.60;;;3.83;;
73760;SDS011;69240;43.530;-5.646;2023-04-25T07:20:08;6.70;;;4.18;;
73760;SDS011;69240;43.530;-5.646;2023-04-25T07:22:35;6.53;;;3.55;;
73760;SDS011;69240;43.530;-5.646;2023-04-25T07:25:00;11.27;;;4.70;;
73760;SDS011;69240;43.530;-5.646;2023-04-25T07:27:26;8.98;;;4.95;;
73760;SDS011;69240;43.530;-5.646;2023-04-25T07:29:52;10.02;;;4.20;;
73760;SDS011;69240;43.530;-5.646;2023-04-25T07:32:18;10.70;;;4.00;;
73760;SDS011;69240;43.530;-5.646;2023-04-25T07:34:43;7.68;;;4.07;;
73760;SDS011;69240;43.530;-5.646;2023-04-25T07:37:09;6.15;;;3.88;;
73760;SDS011;69240;43.530;-5.646;2023-04-25T07:39:34;11.93;;;4.72;;
73760;SDS011;69240;43.530;-5.646;2023-04-25T07:42:00;10.98;;;4.18;;
73760;SDS011;69240;43.530;-5.646;2023-04-25T07:44:27;9.75;;;5.10;;
73760;SDS011;69240;43.530;-5.646;2023-04-25T07:46:52;12.02;;;4.20;;
73760;SDS011;69240;43.530;-5.646;2023-04-25T07:49:18;8.90;;;4.50;;
73760;SDS011;69240;43.530;-5.646;2023-04-25T07:51:43;9.60;;;4.50;;
73760;SDS011;69240;43.530;-5.646;2023-04-25T07:54:09;11.88;;;4.45;;
73760;SDS011;69240;43.530;-5.646;2023-04-25T07:56:38;7.50;;;4.10;;
73760;SDS011;69240;43.530;-5.646;2023-04-25T07:59:04;9.60;;;4.72;;
73760;SDS011;69240;43.530;-5.646;2023-04-25T08:01:30;9.40;;;5.35;;
73760;SDS011;69240;43.530;-5.646;2023-04-25T08:03:55;9.25;;;4.47;;
73760;SDS011;69240;43.530;-5.646;2023-04-25T08:06:21;9.43;;;4.40;;
73760;SDS011;69240;43.530;-5.646;2023-04-25T08:08:47;9.30;;;4.60;;
73760;SDS011;69240;43.530;-5.646;2023-04-25T08:11:12;10.30;;;4.85;;
73760;SDS011;69240;43.530;-5.646;2023-04-25T08:13:38;14.88;;;5.40;;
73760;SDS011;69240;43.530;-5.646;2023-04-25T08:16:03;12.13;;;5.50;;
73760;SDS011;69240;43.530;-5.646;2023-04-25T08:18:29;9.65;;;4.78;;
73760;SDS011;69240;43.530;-5.646;2023-04-25T08:20:54;12.48;;;4.45;;
73760;SDS011;69240;43.530;-5.646;2023-04-25T08:23:20;11.15;;;5.07;;
73760;SDS011;69240;43.530;-5.646;2023-04-25T08:25:45;7.47;;;4.20;;
73760;SDS011;69240;43.530;-5.646;2023-04-25T08:28:11;11.63;;;4.32;;
73760;SDS011;69240;43.530;-5.646;2023-04-25T08:30:36;10.07;;;4.78;;
73760;SDS011;69240;43.530;-5.646;2023-04-25T08:33:02;20.10;;;5.00;;
73760;SDS011;69240;43.530;-5.646;2023-04-25T08:35:27;11.18;;;5.28;;
73760;SDS011;69240;43.530;-5.646;2023-04-25T08:37:53;8.90;;;4.65;;
73760;SDS011;69240;43.530;-5.646;2023-04-25T08:40:19;9.05;;;4.28;;
73760;SDS011;69240;43.530;-5.646;2023-04-25T08:42:51;11.18;;;4.30;;
73760;SDS011;69240;43.530;-5.646;2023-04-25T08:45:19;14.05;;;5.32;;
73760;SDS011;69240;43.530;-5.646;2023-04-25T08:47:45;6.85;;;4.30;;
73760;SDS011;69240;43.530;-5.646;2023-04-25T08:50:13;10.88;;;4.50;;
73760;SDS011;69240;43.530;-5.646;2023-04-25T08:52:43;14.82;;;4.97;;
73760;SDS011;69240;43.530;-5.646;2023-04-25T08:55:10;16.33;;;4.45;;
73760;SDS011;69240;43.530;-5.646;2023-04-25T08:57:38;14.07;;;3.97;;
73760;SDS011;69240;43.530;-5.646;2023-04-25T09:00:04;11.63;;;4.00;;
73760;SDS011;69240;43.530;-5.646;2023-04-25T09:02:30;17.65;;;3.47;;
73760;SDS011;69240;43.530;-5.646;2023-04-25T09:04:56;12.48;;;3.35;;
73760;SDS011;69240;43.530;-5.646;2023-04-25T09:07:22;14.68;;;3.53;;
73760;SDS011;69240;43.530;-5.646;2023-04-25T09:09:48;10.60;;;3.60;;
73760;SDS011;69240;43.530;-5.646;2023-04-25T09:12:13;11.40;;;3.40;;
73760;SDS011;69240;43.530;-5.646;2023-04-25T09:14:39;6.22;;;2.50;;
73760;SDS011;69240;43.530;-5.646;2023-04-25T09:17:05;11.73;;;3.42;;
73760;SDS011;69240;43.530;-5.646;2023-04-25T09:19:33;6.82;;;2.70;;
73760;SDS011;69240;43.530;-5.646;2023-04-25T09:22:06;9.15;;;2.83;;
73760;SDS011;69240;43.530;-5.646;2023-04-25T09:24:36;7.68;;;2.53;;
73760;SDS011;69240;43.530;-5.646;2023-04-25T09:27:06;8.73;;;2.95;;
73760;SDS011;69240;43.530;-5.646;2023-04-25T09:29:33;11.45;;;3.15;;
73760;SDS011;69240;43.530;-5.646;2023-04-25T09:34:48;11.32;;;4.07;;
73760;SDS011;69240;43.530;-5.646;2023-04-25T09:37:22;7.78;;;2.65;;
73760;SDS011;69240;43.530;-5.646;2023-04-25T09:39:50;16.10;;;3.10;;
73760;SDS011;69240;43.530;-5.646;2023-04-25T09:42:24;8.38;;;2.83;;
73760;SDS011;69240;43.530;-5.646;2023-04-25T09:44:52;7.20;;;2.30;;
73760;SDS011;69240;43.530;-5.646;2023-04-25T09:47:18;8.30;;;2.65;;
73760;SDS011;69240;43.530;-5.646;2023-04-25T09:49:47;9.70;;;2.60;;
73760;SDS011;69240;43.530;-5.646;2023-04-25T09:52:30;6.63;;;2.60;;
73760;SDS011;69240;43.530;-5.646;2023-04-25T09:54:56;13.82;;;3.42;;
73760;SDS011;69240;43.530;-5.646;2023-04-25T09:57:24;10.18;;;2.75;;
73760;SDS011;69240;43.530;-5.646;2023-04-25T09:59:51;5.07;;;2.53;;
73760;SDS011;69240;43.530;-5.646;2023-04-25T10:02:19;10.27;;;2.88;;
73760;SDS011;69240;43.530;-5.646;2023-04-25T10:04:53;10.13;;;3.55;;
73760;SDS011;69240;43.530;-5.646;2023-04-25T10:07:20;8.20;;;2.60;;
73760;SDS011;69240;43.530;-5.646;2023-04-25T10:09:50;7.40;;;2.63;;
73760;SDS011;69240;43.530;-5.646;2023-04-25T10:12:24;9.35;;;3.20;;
73760;SDS011;69240;43.530;-5.646;2023-04-25T10:14:50;10.07;;;2.90;;
73760;SDS011;69240;43.530;-5.646;2023-04-25T10:17:16;10.70;;;2.80;;
73760;SDS011;69240;43.530;-5.646;2023-04-25T10:19:42;9.10;;;2.72;;
73760;SDS011;69240;43.530;-5.646;2023-04-25T10:22:11;12.65;;;3.42;;
73760;SDS011;69240;43.530;-5.646;2023-04-25T10:24:42;11.70;;;3.38;;
73760;SDS011;69240;43.530;-5.646;2023-04-25T10:27:08;14.10;;;3.30;;
73760;SDS011;69240;43.530;-5.646;2023-04-25T10:29:34;6.13;;;2.47;;
73760;SDS011;69240;43.530;-5.646;2023-04-25T10:32:00;11.23;;;2.90;;
73760;SDS011;69240;43.530;-5.646;2023-04-25T10:34:39;12.25;;;3.47;;
73760;SDS011;69240;43.530;-5.646;2023-04-25T10:37:05;5.57;;;2.60;;
73760;SDS011;69240;43.530;-5.646;2023-04-25T10:39:34;7.82;;;3.15;;
73760;SDS011;69240;43.530;-5.646;2023-04-25T10:42:00;7.80;;;2.55;;
73760;SDS011;69240;43.530;-5.646;2023-04-25T10:44:28;9.63;;;2.60;;
73760;SDS011;69240;43.530;-5.646;2023-04-25T10:46:55;10.68;;;3.15;;
73760;SDS011;69240;43.530;-5.646;2023-04-25T10:49:29;9.90;;;2.60;;
73760;SDS011;69240;43.530;-5.646;2023-04-25T10:54:41;7.70;;;3.15;;
73760;SDS011;69240;43.530;-5.646;2023-04-25T11:02:47;9.45;;;2.65;;
73760;SDS011;69240;43.530;-5.646;2023-04-25T11:07:56;9.70;;;2.63;;
73760;SDS011;69240;43.530;-5.646;2023-04-25T11:10:27;6.32;;;2.85;;
73760;SDS011;69240;43.530;-5.646;2023-04-25T11:12:54;11.93;;;3.40;;
73760;SDS011;69240;43.530;-5.646;2023-04-25T11:15:20;10.40;;;2.95;;
73760;SDS011;69240;43.530;-5.646;2023-04-25T11:17:45;12.80;;;3.25;;
73760;SDS011;69240;43.530;-5.646;2023-04-25T11:20:11;7.82;;;2.67;;
73760;SDS011;69240;43.530;-5.646;2023-04-25T11:22:39;11.15;;;3.28;;
73760;SDS011;69240;43.530;-5.646;2023-04-25T11:25:08;10.27;;;2.92;;
73760;SDS011;69240;43.530;-5.646;2023-04-25T11:27:54;9.80;;;2.85;;
73760;SDS011;69240;43.530;-5.646;2023-04-25T11:30:24;7.93;;;2.88;;
73760;SDS011;69240;43.530;-5.646;2023-04-25T11:32:51;15.80;;;3.10;;
73760;SDS011;69240;43.530;-5.646;2023-04-25T11:35:17;9.35;;;2.58;;
73760;SDS011;69240;43.530;-5.646;2023-04-25T11:37:44;10.10;;;3.05;;
73760;SDS011;69240;43.530;-5.646;2023-04-25T11:40:10;6.82;;;2.60;;
73760;SDS011;69240;43.530;-5.646;2023-04-25T11:42:43;10.38;;;2.72;;
73760;SDS011;69240;43.530;-5.646;2023-04-25T11:45:10;7.25;;;2.45;;
73760;SDS011;69240;43.530;-5.646;2023-04-25T11:47:36;17.67;;;2.60;;
73760;SDS011;69240;43.530;-5.646;2023-04-25T11:50:02;7.10;;;2.58;;
73760;SDS011;69240;43.530;-5.646;2023-04-25T11:52:36;8.07;;;2.70;;
73760;SDS011;69240;43.530;-5.646;2023-04-25T11:55:09;10.35;;;2.40;;
73760;SDS011;69240;43.530;-5.646;2023-04-25T11:57:35;7.22;;;2.30;;
73760;SDS011;69240;43.530;-5.646;2023-04-25T12:00:10;7.55;;;2.15;;
73760;SDS011;69240;43.530;-5.646;2023-04-25T12:02:41;7.63;;;2.33;;
73760;SDS011;69240;43.530;-5.646;2023-04-25T12:05:08;8.98;;;2.35;;
73760;SDS011;69240;43.530;-5.646;2023-04-25T12:07:35;13.30;;;2.47;;
73760;SDS011;69240;43.530;-5.646;2023-04-25T12:10:19;8.65;;;2.42;;
73760;SDS011;69240;43.530;-5.646;2023-04-25T12:12:47;11.60;;;2.80;;
73760;SDS011;69240;43.530;-5.646;2023-04-25T12:15:14;10.38;;;2.80;;
73760;SDS011;69240;43.530;-5.646;2023-04-25T12:17:41;7.95;;;2.60;;
73760;SDS011;69240;43.530;-5.646;2023-04-25T12:20:10;8.02;;;2.58;;
73760;SDS011;69240;43.530;-5.646;2023-04-25T12:22:39;9.05;;;2.20;;
73760;SDS011;69240;43.530;-5.646;2023-04-25T12:25:10;6.18;;;2.10;;
73760;SDS011;69240;43.530;-5.646;2023-04-25T12:27:39;6.00;;;2.55;;
73760;SDS011;69240;43.530;-5.646;2023-04-25T12:30:09;6.90;;;2.20;;
73760;SDS011;69240;43.530;-5.646;2023-04-25T12:32:36;6.28;;;2.08;;
73760;SDS011;69240;43.530;-5.646;2023-04-25T12:35:03;5.35;;;2.13;;
73760;SDS011;69240;43.530;-5.646;2023-04-25T12:37:29;8.25;;;2.33;;
73760;SDS011;69240;43.530;-5.646;2023-04-25T12:39:55;6.20;;;2.17;;
73760;SDS011;69240;43.530;-5.646;2023-04-25T12:42:21;8.38;;;2.33;;
73760;SDS011;69240;43.530;-5.646;2023-04-25T12:44:46;6.30;;;2.40;;
73760;SDS011;69240;43.530;-5.646;2023-04-25T12:47:12;8.07;;;2.00;;
73760;SDS011;69240;43.530;-5.646;2023-04-25T12:49:38;10.15;;;2.65;;
73760;SDS011;69240;43.530;-5.646;2023-04-25T12:52:03;7.07;;;2.10;;
73760;SDS011;69240;43.530;-5.646;2023-04-25T12:54:29;5.38;;;2.45;;
73760;SDS011;69240;43.530;-5.646;2023-04-25T12:56:54;5.13;;;2.30;;
73760;SDS011;69240;43.530;-5.646;2023-04-25T12:59:20;8.35;;;2.83;;
73760;SDS011;69240;43.530;-5.646;2023-04-25T13:01:46;9.55;;;3.10;;
73760;SDS011;69240;43.530;-5.646;2023-04-25T13:04:12;3.95;;;1.95;;
73760;SDS011;69240;43.530;-5.646;2023-04-25T13:06:37;8.43;;;2.58;;
73760;SDS011;69240;43.530;-5.646;2023-04-25T13:09:03;6.00;;;2.20;;
73760;SDS011;69240;43.530;-5.646;2023-04-25T13:11:28;5.10;;;1.70;;
73760;SDS011;69240;43.530;-5.646;2023-04-25T13:13:54;7.40;;;1.92;;
73760;SDS011;69240;43.530;-5.646;2023-04-25T13:16:20;6.30;;;2.30;;
73760;SDS011;69240;43.530;-5.646;2023-04-25T13:18:46;7.38;;;2.00;;
73760;SDS011;69240;43.530;-5.646;2023-04-25T13:21:12;6.75;;;2.40;;
73760;SDS011;69240;43.530;-5.646;2023-04-25T13:23:37;5.28;;;1.98;;
73760;SDS011;69240;43.530;-5.646;2023-04-25T13:26:03;10.57;;;2.47;;
73760;SDS011;69240;43.530;-5.646;2023-04-25T13:28:29;4.82;;;1.92;;
73760;SDS011;69240;43.530;-5.646;2023-04-25T13:30:54;4.72;;;2.08;;
73760;SDS011;69240;43.530;-5.646;2023-04-25T13:33:20;4.72;;;1.80;;
73760;SDS011;69240;43.530;-5.646;2023-04-25T13:35:46;5.10;;;1.52;;
73760;SDS011;69240;43.530;-5.646;2023-04-25T13:38:19;3.70;;;1.92;;
73760;SDS011;69240;43.530;-5.646;2023-04-25T13:40:46;10.35;;;2.50;;
73760;SDS011;69240;43.530;-5.646;2023-04-25T13:43:12;5.85;;;2.08;;
73760;SDS011;69240;43.530;-5.646;2023-04-25T13:45:38;4.10;;;1.98;;
73760;SDS011;69240;43.530;-5.646;2023-04-25T13:48:04;5.10;;;2.08;;
73760;SDS011;69240;43.530;-5.646;2023-04-25T13:50:30;5.13;;;2.00;;
73760;SDS011;69240;43.530;-5.646;2023-04-25T13:52:56;8.90;;;2.67;;
73760;SDS011;69240;43.530;-5.646;2023-04-25T13:55:22;9.10;;;2.55;;
73760;SDS011;69240;43.530;-5.646;2023-04-25T13:57:51;9.48;;;2.83;;
73760;SDS011;69240;43.530;-5.646;2023-04-25T14:00:16;6.50;;;2.08;;
73760;SDS011;69240;43.530;-5.646;2023-04-25T14:02:42;5.07;;;1.90;;
73760;SDS011;69240;43.530;-5.646;2023-04-25T14:05:08;7.13;;;2.45;;
73760;SDS011;69240;43.530;-5.646;2023-04-25T14:07:34;7.22;;;2.17;;
73760;SDS011;69240;43.530;-5.646;2023-04-25T14:10:01;6.75;;;2.25;;
73760;SDS011;69240;43.530;-5.646;2023-04-25T14:12:27;5.13;;;2.00;;
73760;SDS011;69240;43.530;-5.646;2023-04-25T14:14:52;4.30;;;1.90;;
73760;SDS011;69240;43.530;-5.646;2023-04-25T14:17:18;6.20;;;2.00;;
73760;SDS011;69240;43.530;-5.646;2023-04-25T14:19:44;8.30;;;1.80;;
73760;SDS011;69240;43.530;-5.646;2023-04-25T14:22:12;5.13;;;1.50;;
73760;SDS011;69240;43.530;-5.646;2023-04-25T14:24:38;4.25;;;1.80;;
73760;SDS011;69240;43.530;-5.646;2023-04-25T14:27:04;4.00;;;1.70;;
73760;SDS011;69240;43.530;-5.646;2023-04-25T14:29:30;5.55;;;2.00;;
73760;SDS011;69240;43.530;-5.646;2023-04-25T14:31:55;4.03;;;1.60;;
73760;SDS011;69240;43.530;-5.646;2023-04-25T14:34:22;4.65;;;1.80;;
73760;SDS011;69240;43.530;-5.646;2023-04-25T14:36:48;6.35;;;2.08;;
73760;SDS011;69240;43.530;-5.646;2023-04-25T14:39:13;5.25;;;1.60;;
73760;SDS011;69240;43.530;-5.646;2023-04-25T14:41:39;3.97;;;2.08;;
73760;SDS011;69240;43.530;-5.646;2023-04-25T14:44:05;4.57;;;2.15;;
73760;SDS011;69240;43.530;-5.646;2023-04-25T14:46:31;4.05;;;1.77;;
73760;SDS011;69240;43.530;-5.646;2023-04-25T14:48:56;5.90;;;1.75;;
73760;SDS011;69240;43.530;-5.646;2023-04-25T14:51:22;5.22;;;2.10;;
73760;SDS011;69240;43.530;-5.646;2023-04-25T14:53:47;8.02;;;2.13;;
73760;SDS011;69240;43.530;-5.646;2023-04-25T14:56:13;6.68;;;1.70;;
73760;SDS011;69240;43.530;-5.646;2023-04-25T14:58:39;4.13;;;1.55;;
73760;SDS011;69240;43.530;-5.646;2023-04-25T15:01:05;4.45;;;1.58;;
73760;SDS011;69240;43.530;-5.646;2023-04-25T15:03:31;5.35;;;1.80;;
73760;SDS011;69240;43.530;-5.646;2023-04-25T15:05:57;8.63;;;2.20;;
73760;SDS011;69240;43.530;-5.646;2023-04-25T15:08:23;6.82;;;1.90;;
73760;SDS011;69240;43.530;-5.646;2023-04-25T15:10:48;6.43;;;2.30;;
73760;SDS011;69240;43.530;-5.646;2023-04-25T15:13:14;6.82;;;1.90;;
73760;SDS011;69240;43.530;-5.646;2023-04-25T15:15:40;6.10;;;2.13;;
73760;SDS011;69240;43.530;-5.646;2023-04-25T15:18:06;8.77;;;2.17;;
73760;SDS011;69240;43.530;-5.646;2023-04-25T15:20:31;6.95;;;2.70;;
73760;SDS011;69240;43.530;-5.646;2023-04-25T15:22:57;7.70;;;2.53;;
73760;SDS011;69240;43.530;-5.646;2023-04-25T15:25:23;7.40;;;1.90;;
73760;SDS011;69240;43.530;-5.646;2023-04-25T15:27:49;6.05;;;2.10;;
73760;SDS011;69240;43.530;-5.646;2023-04-25T15:30:16;6.03;;;2.03;;
73760;SDS011;69240;43.530;-5.646;2023-04-25T15:32:43;6.80;;;2.00;;
73760;SDS011;69240;43.530;-5.646;2023-04-25T15:35:09;5.35;;;2.08;;
73760;SDS011;69240;43.530;-5.646;2023-04-25T15:37:36;6.78;;;1.50;;
73760;SDS011;69240;43.530;-5.646;2023-04-25T15:40:03;7.65;;;2.45;;
73760;SDS011;69240;43.530;-5.646;2023-04-25T15:42:37;4.38;;;1.92;;
73760;SDS011;69240;43.530;-5.646;2023-04-25T15:45:12;6.40;;;2.30;;
73760;SDS011;69240;43.530;-5.646;2023-04-25T15:47:38;7.60;;;2.35;;
73760;SDS011;69240;43.530;-5.646;2023-04-25T15:50:05;4.35;;;1.77;;
73760;SDS011;69240;43.530;-5.646;2023-04-25T15:52:32;6.78;;;2.08;;
73760;SDS011;69240;43.530;-5.646;2023-04-25T15:54:58;7.13;;;2.03;;
73760;SDS011;69240;43.530;-5.646;2023-04-25T15:57:25;3.35;;;1.52;;
73760;SDS011;69240;43.530;-5.646;2023-04-25T15:59:51;4.95;;;1.83;;
73760;SDS011;69240;43.530;-5.646;2023-04-25T16:02:17;4.22;;;2.05;;
73760;SDS011;69240;43.530;-5.646;2023-04-25T16:04:43;5.43;;;2.08;;
73760;SDS011;69240;43.530;-5.646;2023-04-25T16:07:12;5.32;;;2.15;;
73760;SDS011;69240;43.530;-5.646;2023-04-25T16:09:38;6.93;;;2.50;;
73760;SDS011;69240;43.530;-5.646;2023-04-25T16:12:04;6.53;;;3.22;;
73760;SDS011;69240;43.530;-5.646;2023-04-25T16:14:31;6.78;;;2.38;;
73760;SDS011;69240;43.530;-5.646;2023-04-25T16:16:57;8.27;;;2.40;;
73760;SDS011;69240;43.530;-5.646;2023-04-25T16:19:23;6.63;;;2.47;;
73760;SDS011;69240;43.530;-5.646;2023-04-25T16:21:48;10.07;;;2.58;;
73760;SDS011;69240;43.530;-5.646;2023-04-25T16:24:15;6.63;;;2.72;;
73760;SDS011;69240;43.530;-5.646;2023-04-25T16:26:41;6.90;;;2.47;;
73760;SDS011;69240;43.530;-5.646;2023-04-25T16:29:07;11.82;;;2.80;;
73760;SDS011;69240;43.530;-5.646;2023-04-25T16:31:34;6.60;;;2.63;;
73760;SDS011;69240;43.530;-5.646;2023-04-25T16:34:00;5.60;;;2.35;;
73760;SDS011;69240;43.530;-5.646;2023-04-25T16:36:27;8.55;;;2.63;;
73760;SDS011;69240;43.530;-5.646;2023-04-25T16:38:53;5.80;;;2.22;;
73760;SDS011;69240;43.530;-5.646;2023-04-25T16:41:18;9.35;;;3.45;;
73760;SDS011;69240;43.530;-5.646;2023-04-25T16:43:44;6.57;;;3.03;;
73760;SDS011;69240;43.530;-5.646;2023-04-25T16:46:09;6.43;;;2.70;;
73760;SDS011;69240;43.530;-5.646;2023-04-25T16:48:35;9.15;;;3.20;;
73760;SDS011;69240;43.530;-5.646;2023-04-25T16:51:01;7.70;;;3.05;;
73760;SDS011;69240;43.530;-5.646;2023-04-25T16:53:26;7.05;;;2.83;;
73760;SDS011;69240;43.530;-5.646;2023-04-25T16:55:52;10.90;;;3.00;;
73760;SDS011;69240;43.530;-5.646;2023-04-25T16:58:17;7.57;;;2.70;;
73760;SDS011;69240;43.530;-5.646;2023-04-25T17:00:43;8.77;;;2.97;;
73760;SDS011;69240;43.530;-5.646;2023-04-25T17:03:09;6.05;;;3.17;;
73760;SDS011;69240;43.530;-5.646;2023-04-25T17:05:35;7.15;;;2.70;;
73760;SDS011;69240;43.530;-5.646;2023-04-25T17:08:01;7.88;;;3.30;;
73760;SDS011;69240;43.530;-5.646;2023-04-25T17:10:27;5.82;;;2.45;;
73760;SDS011;69240;43.530;-5.646;2023-04-25T17:12:53;5.75;;;2.85;;
73760;SDS011;69240;43.530;-5.646;2023-04-25T17:15:18;7.95;;;3.08;;
73760;SDS011;69240;43.530;-5.646;2023-04-25T17:17:44;7.43;;;3.10;;
73760;SDS011;69240;43.530;-5.646;2023-04-25T17:20:10;6.70;;;3.45;;
73760;SDS011;69240;43.530;-5.646;2023-04-25T17:22:37;5.55;;;3.10;;
73760;SDS011;69240;43.530;-5.646;2023-04-25T17:25:04;4.88;;;2.72;;
73760;SDS011;69240;43.530;-5.646;2023-04-25T17:27:31;6.32;;;3.20;;
73760;SDS011;69240;43.530;-5.646;2023-04-25T17:29:57;6.03;;;3.00;;
73760;SDS011;69240;43.530;-5.646;2023-04-25T17:32:22;6.72;;;3.33;;
73760;SDS011;69240;43.530;-5.646;2023-04-25T17:34:48;5.97;;;3.08;;
73760;SDS011;69240;43.530;-5.646;2023-04-25T17:37:14;6.97;;;3.38;;
73760;SDS011;69240;43.530;-5.646;2023-04-25T17:39:41;6.30;;;3.50;;
73760;SDS011;69240;43.530;-5.646;2023-04-25T17:42:07;5.38;;;3.58;;
73760;SDS011;69240;43.530;-5.646;2023-04-25T17:44:33;9.32;;;4.07;;
73760;SDS011;69240;43.530;-5.646;2023-04-25T17:46:59;5.65;;;3.80;;
73760;SDS011;69240;43.530;-5.646;2023-04-25T17:49:27;6.47;;;4.22;;
73760;SDS011;69240;43.530;-5.646;2023-04-25T17:51:53;8.50;;;4.07;;
73760;SDS011;69240;43.530;-5.646;2023-04-25T17:54:18;8.23;;;4.18;;
73760;SDS011;69240;43.530;-5.646;2023-04-25T17:56:46;7.72;;;3.88;;
73760;SDS011;69240;43.530;-5.646;2023-04-25T17:59:12;8.50;;;4.60;;
73760;SDS011;69240;43.530;-5.646;2023-04-25T18:01:38;8.02;;;4.40;;
73760;SDS011;69240;43.530;-5.646;2023-04-25T18:04:04;9.27;;;4.50;;
73760;SDS011;69240;43.530;-5.646;2023-04-25T18:06:30;5.00;;;3.20;;
73760;SDS011;69240;43.530;-5.646;2023-04-25T18:08:59;6.80;;;3.92;;
73760;SDS011;69240;43.530;-5.646;2023-04-25T18:11:26;15.35;;;4.13;;
73760;SDS011;69240;43.530;-5.646;2023-04-25T18:13:55;9.65;;;4.43;;
73760;SDS011;69240;43.530;-5.646;2023-04-25T18:16:21;14.52;;;5.55;;
73760;SDS011;69240;43.530;-5.646;2023-04-25T18:18:47;13.27;;;6.38;;
73760;SDS011;69240;43.530;-5.646;2023-04-25T18:21:18;12.52;;;5.50;;
73760;SDS011;69240;43.530;-5.646;2023-04-25T18:23:44;14.63;;;5.03;;
73760;SDS011;69240;43.530;-5.646;2023-04-25T18:26:10;15.48;;;4.57;;
73760;SDS011;69240;43.530;-5.646;2023-04-25T18:28:36;13.70;;;4.60;;
73760;SDS011;69240;43.530;-5.646;2023-04-25T18:31:02;12.88;;;4.88;;
73760;SDS011;69240;43.530;-5.646;2023-04-25T18:33:28;10.27;;;4.30;;
73760;SDS011;69240;43.530;-5.646;2023-04-25T18:35:54;12.45;;;5.00;;
73760;SDS011;69240;43.530;-5.646;2023-04-25T18:38:20;16.55;;;5.25;;
73760;SDS011;69240;43.530;-5.646;2023-04-25T18:40:46;11.95;;;5.32;;
73760;SDS011;69240;43.530;-5.646;2023-04-25T18:43:13;12.73;;;5.65;;
73760;SDS011;69240;43.530;-5.646;2023-04-25T18:45:38;9.55;;;4.90;;
73760;SDS011;69240;43.530;-5.646;2023-04-25T18:48:04;10.60;;;4.93;;
73760;SDS011;69240;43.530;-5.646;2023-04-25T18:50:29;12.90;;;5.85;;
73760;SDS011;69240;43.530;-5.646;2023-04-25T18:52:57;15.38;;;4.90;;
73760;SDS011;69240;43.530;-5.646;2023-04-25T18:55:23;16.48;;;5.82;;
73760;SDS011;69240;43.530;-5.646;2023-04-25T18:57:49;10.07;;;5.63;;
73760;SDS011;69240;43.530;-5.646;2023-04-25T19:00:15;9.73;;;6.22;;
73760;SDS011;69240;43.530;-5.646;2023-04-25T19:02:41;16.55;;;6.85;;
73760;SDS011;69240;43.530;-5.646;2023-04-25T19:05:07;14.50;;;6.60;;
73760;SDS011;69240;43.530;-5.646;2023-04-25T19:07:34;10.05;;;5.47;;
73760;SDS011;69240;43.530;-5.646;2023-04-25T19:09:59;12.57;;;5.90;;
73760;SDS011;69240;43.530;-5.646;2023-04-25T19:12:25;14.43;;;5.97;;
73760;SDS011;69240;43.530;-5.646;2023-04-25T19:14:50;12.70;;;5.63;;
73760;SDS011;69240;43.530;-5.646;2023-04-25T19:17:16;17.05;;;5.68;;
73760;SDS011;69240;43.530;-5.646;2023-04-25T19:19:42;11.70;;;4.80;;
73760;SDS011;69240;43.530;-5.646;2023-04-25T19:22:07;8.65;;;4.53;;
73760;SDS011;69240;43.530;-5.646;2023-04-25T19:24:33;9.13;;;4.30;;
73760;SDS011;69240;43.530;-5.646;2023-04-25T19:26:58;9.68;;;4.38;;
73760;SDS011;69240;43.530;-5.646;2023-04-25T19:29:24;13.60;;;4.55;;
73760;SDS011;69240;43.530;-5.646;2023-04-25T19:31:49;10.77;;;4.90;;
73760;SDS011;69240;43.530;-5.646;2023-04-25T19:34:15;9.30;;;4.38;;
73760;SDS011;69240;43.530;-5.646;2023-04-25T19:36:41;10.07;;;4.65;;
73760;SDS011;69240;43.530;-5.646;2023-04-25T19:39:07;10.25;;;4.60;;
73760;SDS011;69240;43.530;-5.646;2023-04-25T19:41:34;11.40;;;4.40;;
73760;SDS011;69240;43.530;-5.646;2023-04-25T19:44:01;9.18;;;4.38;;
73760;SDS011;69240;43.530;-5.646;2023-04-25T19:46:31;7.95;;;4.05;;
73760;SDS011;69240;43.530;-5.646;2023-04-25T19:48:57;8.25;;;4.15;;